Time;durP1;ratioP1;P1;durP2;ratioP2;P2;SDS_P1;SDS_P2;PMS_P1;PMS_P2;Temp;Humidity;BMP_temperature;BMP_pressure;BME280_temperature;BME280_humidity;BME280_pressure;Samples;Min_cycle;Max_cycle;Signal;HPM_P1;HPM_P2
2023/01/30 07:57:46;;;;;;;18.37;10.13;;;-2.80;99.90;;;;;;5139430;27;20629;-81
2023/01/30 08:00:30;;;;;;;27.43;13.37;;;-2.80;99.90;;;;;;5117210;27;20548;-81
2023/01/30 08:02:56;;;;;;;22.90;12.07;;;-2.70;99.90;;;;;;5116970;28;20992;-81
2023/01/30 08:05:22;;;;;;;13.10;7.97;;;-2.70;99.90;;;;;;5120491;28;20430;-81
2023/01/30 08:07:47;;;;;;;23.27;13.53;;;-2.80;99.90;;;;;;5129263;28;20184;-82
2023/01/30 08:10:13;;;;;;;22.03;13.10;;;-2.60;99.90;;;;;;5116150;28;20206;-83
2023/01/30 08:12:39;;;;;;;26.73;13.83;;;-2.50;99.90;;;;;;5113191;28;20206;-81
2023/01/30 08:15:07;;;;;;;28.93;15.23;;;-1.80;99.90;;;;;;5114742;28;20769;-82
2023/01/30 08:17:33;;;;;;;23.73;12.80;;;-2.30;99.90;;;;;;5114752;28;20416;-82
2023/01/30 08:19:59;;;;;;;22.20;13.27;;;-2.10;99.90;;;;;;5113137;28;20534;-82
2023/01/30 08:22:25;;;;;;;27.57;14.97;;;-1.80;99.90;;;;;;5115182;28;20429;-81
2023/01/30 08:24:50;;;;;;;25.87;15.07;;;-1.50;99.90;;;;;;5115322;28;20570;-82
2023/01/30 08:27:16;;;;;;;25.27;14.93;;;-1.10;99.90;;;;;;5114453;28;20180;-82
2023/01/30 08:29:43;;;;;;;18.17;10.53;;;-0.60;99.90;;;;;;5114854;28;20199;-83
2023/01/30 08:32:09;;;;;;;24.53;14.57;;;-0.30;99.90;;;;;;5114494;28;20206;-83
2023/01/30 08:34:34;;;;;;;20.33;12.70;;;-0.20;99.90;;;;;;5112944;28;20421;-83
2023/01/30 08:37:00;;;;;;;14.27;9.77;;;0.20;99.90;;;;;;5112713;28;20188;-84
2023/01/30 08:39:26;;;;;;;16.83;10.57;;;0.20;99.90;;;;;;5114535;28;20207;-82
2023/01/30 08:41:52;;;;;;;20.40;13.30;;;0.40;99.90;;;;;;5113213;28;20429;-83
2023/01/30 08:44:17;;;;;;;19.47;12.13;;;0.30;99.90;;;;;;5114326;28;20168;-81
2023/01/30 08:46:43;;;;;;;18.27;11.97;;;0.30;99.90;;;;;;5113725;28;20171;-83
2023/01/30 08:49:09;;;;;;;15.50;10.30;;;0.10;99.90;;;;;;5112547;28;20211;-82
2023/01/30 08:51:35;;;;;;;13.23;8.90;;;0.30;99.90;;;;;;5112381;28;20196;-84
2023/01/30 08:54:01;;;;;;;15.60;10.23;;;0.40;99.90;;;;;;5113435;28;20413;-82
2023/01/30 08:56:26;;;;;;;17.13;12.27;;;0.40;99.90;;;;;;5114466;28;20186;-83
2023/01/30 08:58:52;;;;;;;12.03;8.57;;;0.40;99.90;;;;;;5118082;28;20233;-82
2023/01/30 09:01:18;;;;;;;13.47;9.90;;;0.40;99.90;;;;;;5115343;28;20196;-83
2023/01/30 09:03:43;;;;;;;18.00;11.87;;;0.30;99.90;;;;;;5113597;28;20657;-81
2023/01/30 09:06:09;;;;;;;21.20;13.33;;;0.40;99.90;;;;;;5112555;28;20180;-82
2023/01/30 09:08:35;;;;;;;18.53;12.93;;;0.40;99.90;;;;;;5112152;28;20184;-82
2023/01/30 09:11:03;;;;;;;16.27;11.37;;;0.50;99.90;;;;;;5104608;28;20241;-83
2023/01/30 09:13:29;;;;;;;17.57;11.63;;;0.60;99.90;;;;;;5100120;28;20194;-82
2023/01/30 09:15:56;;;;;;;17.37;11.43;;;1.00;99.90;;;;;;5099224;28;20172;-82
2023/01/30 09:18:23;;;;;;;22.63;13.83;;;0.70;99.90;;;;;;5098978;28;20200;-83
2023/01/30 09:20:48;;;;;;;17.47;11.40;;;0.80;99.90;;;;;;5099490;28;20233;-82
2023/01/30 09:23:14;;;;;;;18.80;12.37;;;1.00;99.90;;;;;;5098577;28;20199;-82
2023/01/30 09:25:43;;;;;;;17.53;12.10;;;1.00;99.90;;;;;;5099805;28;20200;-84
2023/01/30 09:28:08;;;;;;;14.23;9.67;;;1.40;99.90;;;;;;5097709;28;20179;-81
2023/01/30 09:30:34;;;;;;;16.57;11.90;;;1.40;99.90;;;;;;5098599;28;20755;-82
2023/01/30 09:32:59;;;;;;;16.00;10.13;;;1.40;99.90;;;;;;5099611;28;20721;-83
2023/01/30 09:35:25;;;;;;;11.97;9.30;;;1.30;99.90;;;;;;5098460;28;20666;-83
2023/01/30 09:37:52;;;;;;;14.67;10.57;;;1.30;99.90;;;;;;5097745;28;20181;-82
2023/01/30 09:40:25;;;;;;;13.80;9.37;;;1.40;99.90;;;;;;5097684;28;20190;-82
2023/01/30 09:43:14;;;;;;;8.40;6.00;;;1.20;99.90;;;;;;5097984;28;20284;-83
2023/01/30 09:46:04;;;;;;;11.97;8.30;;;1.30;99.90;;;;;;5098646;28;20172;-84
2023/01/30 09:48:46;;;;;;;13.03;9.93;;;1.40;99.90;;;;;;5098339;28;20423;-82
2023/01/30 09:51:26;;;;;;;10.93;7.77;;;1.60;99.90;;;;;;5098507;28;20323;-82
2023/01/30 09:53:58;;;;;;;14.43;9.30;;;1.70;99.90;;;;;;5099776;28;20248;-83
2023/01/30 09:56:24;;;;;;;11.80;8.30;;;1.80;99.90;;;;;;5100053;28;20165;-83
2023/01/30 09:59:02;;;;;;;12.90;8.90;;;1.90;99.90;;;;;;5100270;28;20296;-85
2023/01/30 10:01:46;;;;;;;13.67;8.53;;;2.10;99.90;;;;;;5099285;28;20193;-83
2023/01/30 10:04:15;;;;;;;13.70;9.43;;;2.10;99.90;;;;;;5099691;28;20158;-84
2023/01/30 10:06:56;;;;;;;12.83;8.67;;;2.40;99.90;;;;;;5098618;28;20461;-83
2023/01/30 10:09:40;;;;;;;14.90;8.67;;;2.60;99.90;;;;;;5078279;28;20206;-84
2023/01/30 10:12:28;;;;;;;12.37;8.90;;;2.80;99.90;;;;;;5077899;28;20286;-83
2023/01/30 10:14:54;;;;;;;14.67;10.67;;;2.20;99.90;;;;;;5078331;28;20201;-84
2023/01/30 10:17:35;;;;;;;11.97;8.50;;;2.00;99.90;;;;;;5078737;28;20232;-83
2023/01/30 10:20:13;;;;;;;11.33;8.10;;;2.20;99.90;;;;;;5080520;28;20244;-83
2023/01/30 10:23:10;;;;;;;12.23;9.23;;;2.00;99.90;;;;;;5077659;28;20211;-84
2023/01/30 10:25:47;;;;;;;11.67;8.47;;;2.00;99.90;;;;;;5079719;28;20177;-84
2023/01/30 10:28:25;;;;;;;10.83;7.70;;;2.40;99.90;;;;;;5080678;28;20154;-84
2023/01/30 10:30:55;;;;;;;13.30;9.30;;;2.60;99.90;;;;;;5078526;28;20290;-84
2023/01/30 10:33:44;;;;;;;12.17;8.67;;;2.50;99.90;;;;;;5078054;28;20210;-84
2023/01/30 10:36:32;;;;;;;12.23;8.40;;;2.70;99.90;;;;;;5080385;28;20153;-86
2023/01/30 10:39:01;;;;;;;13.37;8.37;;;2.60;99.90;;;;;;5063090;28;20300;-85
2023/01/30 10:41:35;;;;;;;11.40;8.30;;;2.80;99.90;;;;;;5080257;28;20552;-84
2023/01/30 10:44:12;;;;;;;12.80;8.60;;;2.70;99.90;;;;;;5078827;28;20201;-84
2023/01/30 10:46:45;;;;;;;15.07;9.00;;;3.10;99.90;;;;;;5078233;28;20225;-84
2023/01/30 10:49:14;;;;;;;11.30;8.07;;;3.00;99.90;;;;;;5077534;28;20181;-85
2023/01/30 10:51:55;;;;;;;12.73;9.20;;;3.10;99.90;;;;;;5077502;28;20201;-84
2023/01/30 10:54:36;;;;;;;12.10;9.13;;;3.30;99.90;;;;;;5077481;28;20184;-83
2023/01/30 10:57:13;;;;;;;11.30;8.07;;;3.10;99.90;;;;;;5079182;28;20175;-84
2023/01/30 10:59:51;;;;;;;12.47;8.67;;;2.40;99.90;;;;;;5077445;28;20217;-82
2023/01/30 11:02:31;;;;;;;10.67;7.17;;;2.50;99.90;;;;;;5077374;28;20665;-83
2023/01/30 11:04:59;;;;;;;8.60;4.97;;;2.80;99.90;;;;;;5079616;28;20176;-83
2023/01/30 11:07:30;;;;;;;9.33;7.00;;;2.80;99.90;;;;;;5078589;28;20171;-82
2023/01/30 11:09:57;;;;;;;12.30;7.87;;;3.10;99.90;;;;;;5079221;28;20179;-84
2023/01/30 11:12:23;;;;;;;9.07;6.80;;;3.60;99.90;;;;;;5076920;28;20245;-85
2023/01/30 11:15:07;;;;;;;10.30;7.27;;;3.70;99.90;;;;;;5077545;28;20180;-84
2023/01/30 11:17:33;;;;;;;8.57;6.70;;;4.60;99.90;;;;;;5076558;28;20630;-83
2023/01/30 11:20:09;;;;;;;6.67;5.40;;;5.00;99.90;;;;;;5077241;28;20246;-83
2023/01/30 11:22:36;;;;;;;8.93;6.20;;;4.30;99.90;;;;;;5079080;28;20674;-83
2023/01/30 11:25:10;;;;;;;7.07;5.97;;;3.30;99.90;;;;;;5080054;28;20188;-85
2023/01/30 11:27:35;;;;;;;7.93;5.50;;;2.70;99.90;;;;;;5078888;28;20163;-85
2023/01/30 11:30:12;;;;;;;7.33;4.97;;;2.30;99.90;;;;;;5076741;28;20192;-82
2023/01/30 11:32:38;;;;;;;8.10;6.33;;;2.30;99.90;;;;;;5084073;28;20205;-82
2023/01/30 11:35:06;;;;;;;11.20;5.83;;;2.40;99.90;;;;;;5078195;28;20207;-84
2023/01/30 11:37:36;;;;;;;8.93;6.23;;;2.40;99.90;;;;;;5076598;28;20174;-82
2023/01/30 11:40:26;;;;;;;10.17;6.93;;;2.30;99.90;;;;;;5077141;28;20734;-82
2023/01/30 11:43:05;;;;;;;9.53;6.50;;;2.20;99.90;;;;;;5075338;28;20205;-82
2023/01/30 11:45:40;;;;;;;9.33;6.37;;;2.20;99.90;;;;;;5075533;28;20649;-82
2023/01/30 11:48:15;;;;;;;9.10;6.20;;;2.20;99.90;;;;;;5075058;28;20260;-82
2023/01/30 11:50:46;;;;;;;14.80;8.53;;;2.10;99.90;;;;;;5076103;28;20161;-81
2023/01/30 11:53:33;;;;;;;11.80;8.47;;;2.00;99.90;;;;;;5076198;28;20276;-83
2023/01/30 11:56:08;;;;;;;7.90;6.00;;;2.10;99.90;;;;;;5077464;28;20180;-82
2023/01/30 11:58:37;;;;;;;8.63;5.43;;;2.20;99.90;;;;;;5075519;28;20269;-82
2023/01/30 12:01:04;;;;;;;13.47;8.43;;;2.60;99.90;;;;;;5076935;28;20191;-82
2023/01/30 12:03:32;;;;;;;10.37;7.70;;;2.70;99.90;;;;;;5075825;28;20760;-82
2023/01/30 12:05:58;;;;;;;13.60;8.23;;;3.00;99.90;;;;;;5077236;28;20415;-83
2023/01/30 12:08:26;;;;;;;12.30;7.07;;;3.40;99.90;;;;;;5078451;28;20169;-81
2023/01/30 12:10:59;;;;;;;12.17;7.90;;;3.40;99.90;;;;;;5075718;28;20948;-81
2023/01/30 12:13:35;;;;;;;10.73;7.37;;;3.00;99.90;;;;;;5080203;28;20399;-80
2023/01/30 12:16:19;;;;;;;10.97;7.30;;;2.60;99.90;;;;;;5091615;28;20199;-81
2023/01/30 12:19:00;;;;;;;9.67;6.27;;;2.50;99.90;;;;;;5088796;28;20461;-81
2023/01/30 12:21:37;;;;;;;11.03;6.53;;;2.20;99.90;;;;;;5075922;28;20193;-82
2023/01/30 12:24:31;;;;;;;9.20;6.57;;;2.10;99.90;;;;;;5076291;28;20161;-82
2023/01/30 12:27:10;;;;;;;10.00;6.30;;;2.10;99.90;;;;;;5075938;28;20806;-81
2023/01/30 12:30:00;;;;;;;8.97;6.03;;;1.90;99.90;;;;;;5078374;28;20234;-82
2023/01/30 12:32:29;;;;;;;9.33;5.67;;;1.80;99.90;;;;;;5036039;28;20439;-83
2023/01/30 12:34:55;;;;;;;7.90;4.90;;;1.80;99.90;;;;;;5075518;28;20788;-81
2023/01/30 12:37:50;;;;;;;7.70;4.97;;;1.80;99.90;;;;;;5078020;28;20407;-83
2023/01/30 12:40:42;;;;;;;12.63;6.03;;;1.70;99.90;;;;;;5054697;28;20220;-86
2023/01/30 12:43:16;;;;;;;6.63;4.43;;;1.70;99.90;;;;;;5077979;28;20873;-81
2023/01/30 12:45:55;;;;;;;4.03;3.30;;;1.70;99.90;;;;;;5076621;28;20454;-81
2023/01/30 12:48:35;;;;;;;7.73;5.37;;;1.60;99.90;;;;;;5080956;28;20395;-81
2023/01/30 12:51:27;;;;;;;6.73;4.87;;;1.70;99.90;;;;;;5079676;28;20447;-81
2023/01/30 12:54:11;;;;;;;7.37;5.03;;;1.70;99.90;;;;;;5071207;28;20459;-81
2023/01/30 12:56:57;;;;;;;7.53;4.73;;;1.70;99.90;;;;;;5080307;28;20411;-80
2023/01/30 12:59:33;;;;;;;10.53;5.53;;;1.70;99.90;;;;;;5081034;28;20484;-81
2023/01/30 13:02:26;;;;;;;5.47;3.83;;;1.70;99.90;;;;;;5081120;28;20423;-84
2023/01/30 13:05:14;;;;;;;5.43;3.83;;;1.70;99.90;;;;;;5079752;28;20411;-81
2023/01/30 13:07:45;;;;;;;6.47;4.83;;;1.80;99.90;;;;;;5077913;28;20418;-81
2023/01/30 13:10:11;;;;;;;5.90;4.50;;;1.90;99.90;;;;;;5078525;28;20985;-81
2023/01/30 13:12:49;;;;;;;12.17;7.00;;;1.90;99.90;;;;;;5079241;28;20439;-83
2023/01/30 13:15:36;;;;;;;6.97;4.23;;;1.80;99.90;;;;;;5080670;28;20591;-80
2023/01/30 13:18:07;;;;;;;8.43;5.40;;;1.90;99.90;;;;;;5078225;28;20765;-82
2023/01/30 13:21:10;;;;;;;7.37;5.07;;;1.90;99.90;;;;;;5082807;28;20451;-85
2023/01/30 13:24:02;;;;;;;7.23;4.93;;;1.90;99.90;;;;;;5081619;28;20391;-85
2023/01/30 13:26:35;;;;;;;7.97;5.53;;;1.90;99.90;;;;;;5078204;28;20407;-82
2023/01/30 13:29:25;;;;;;;7.73;6.23;;;1.90;99.90;;;;;;5078476;28;20493;-83
2023/01/30 13:31:55;;;;;;;6.67;5.40;;;2.00;99.90;;;;;;5079223;28;20485;-82
2023/01/30 13:34:33;;;;;;;7.47;5.00;;;2.20;99.90;;;;;;5080048;28;20433;-83
2023/01/30 13:37:07;;;;;;;9.07;6.40;;;2.30;99.90;;;;;;5079523;28;20395;-80
2023/01/30 13:39:43;;;;;;;5.30;4.17;;;2.30;99.90;;;;;;5080031;28;20497;-85
2023/01/30 13:42:35;;;;;;;7.87;5.80;;;2.20;99.90;;;;;;5081343;28;20636;-84
2023/01/30 13:45:04;;;;;;;10.93;6.43;;;2.20;99.90;;;;;;5078569;28;20917;-82
2023/01/30 13:47:38;;;;;;;5.27;3.57;;;2.20;99.90;;;;;;5081313;28;20433;-82
2023/01/30 13:50:34;;;;;;;8.07;5.60;;;2.10;99.90;;;;;;5079364;28;20410;-84
2023/01/30 13:53:42;;;;;;;4.40;3.67;;;2.20;99.90;;;;;;5079750;28;20403;-85
2023/01/30 13:56:33;;;;;;;11.50;5.43;;;2.20;99.90;;;;;;5094089;28;20479;-84
2023/01/30 13:59:14;;;;;;;4.33;3.37;;;2.10;99.90;;;;;;5095037;28;20956;-80
2023/01/30 14:02:05;;;;;;;7.97;5.13;;;2.10;99.90;;;;;;5078570;28;20427;-81
2023/01/30 14:04:40;;;;;;;7.80;4.87;;;2.20;99.90;;;;;;5068524;28;20493;-83
2023/01/30 14:07:15;;;;;;;7.33;4.00;;;2.10;99.90;;;;;;5077089;28;20415;-82
2023/01/30 14:09:44;;;;;;;6.47;4.70;;;2.10;99.90;;;;;;5079310;28;20391;-83
2023/01/30 14:12:25;;;;;;;4.03;3.47;;;2.10;99.90;;;;;;5077833;28;20847;-84
2023/01/30 14:31:50;;;;;;;5.40;3.77;;;1.90;99.90;;;;;;5079149;28;20783;-82
2023/01/30 14:51:28;;;;;;;7.10;4.57;;;1.60;99.90;;;;;;5078344;28;20434;-83
2023/01/30 14:54:11;;;;;;;3.40;3.07;;;1.50;99.90;;;;;;5076914;28;20406;-82
2023/01/30 14:57:00;;;;;;;9.57;5.43;;;1.40;99.90;;;;;;5076241;28;20497;-81
2023/01/30 14:59:30;;;;;;;7.23;5.40;;;1.40;99.90;;;;;;5076956;28;20462;-81
2023/01/30 15:02:08;;;;;;;8.57;4.83;;;1.30;99.90;;;;;;5076821;28;20462;-81
